Lynch, Nebraska
Current Conditions -  °F | °C
As of 10:15 AM on Wednesday 22 Oct 2014 (Local Time) from KONL Reporting Station
Clear Clear  
Wind Chill: 62°   Ceiling: Unl
Heat Index: 62°   Visibility: 10mi
Dew Point: 56°   Wind: 15mph
Humidity: 81%   Direction: 190°S
Pressure: 29.97"   Gusts: NA
Location:  42.83°N, 98.47°W
Report Text: KONL 221515Z AUTO 19013KT 10SM CLR 17/14 A2997 RMK AO2 T01690136
Loading
Personal Weather Stations






























Interactive Weather Map
Tropical Storm Tracking
New forecast layout! Learn more

10-Day Weather Forecast

Advertisements
Track Severe Weather on mobile